Flight Track Log - Related Links

Times and Time Zones

All times are in EDT time to prevent confusion due to time zone crossing. See the AWE801 flight status page for this flight to view local times or setup timezone preferences in your user account.

Time Position Orientation Groundspeed Altitude Reporting Facility
EDT Latitude Longitude Course Direction KTS MPH feet Rate Location/Type
Fri 09:36:47 AM 35.2590 -80.9160 37° Northeast 188 216 2,800  Level FlightAware ADS-B
Fri 09:36:57 AM 35.2670 -80.9120 22° Northeast 195 224 3,300 2,100 Climbing FlightAware ADS-B
Fri 09:37:27 AM 35.2930 -80.9000 21° North 222 255 4,200 1,867 Climbing FlightAware ADS-B
Fri 09:37:42 AM 35.3000 -80.8840 62° Northeast 252 290 4,700 1,800 Climbing FlightAware ADS-B
Fri 09:37:47 AM 35.3010 -80.8770 80° East 255 293 4,800 2,640 Climbing FlightAware ADS-B
Fri 09:38:07 AM 35.2940 -80.8480 106° East 269 310 5,800 2,914 Climbing FlightAware ADS-B
Fri 09:38:22 AM 35.2800 -80.8310 135° Southeast 279 321 6,500 2,800 Climbing FlightAware ADS-B
Fri 09:38:37 AM 35.2610 -80.8230 161° South 280 322 7,200 2,800 Climbing FlightAware ADS-B
Fri 09:39:07 AM 35.2230 -80.8250 182° South 288 331 8,600 2,800 Climbing FlightAware ADS-B
Fri 09:39:22 AM 35.2040 -80.8280 187° South 291 335 9,300 2,291 Climbing FlightAware ADS-B
Fri 09:40:02 AM 35.1460 -80.8380 188° South 329 379 10,700 2,025 Climbing FlightAware ADS-B
Fri 09:40:42 AM 35.0840 -80.8460 186° South 373 429 12,000 2,753 Climbing FlightAware ADS-B
Fri 09:41:27 AM 35.0370 -80.8510 185° South 386 444 14,600 3,671 Climbing FlightAware ADS-B
Fri 09:42:07 AM 34.9370 -80.8610 185° South 400 460 17,200 3,600 Climbing FlightAware ADS-B
Fri 09:42:47 AM 34.8600 -80.8700 185° South 420 483 19,400 3,247 Climbing FlightAware ADS-B
Fri 09:43:32 AM 34.7660 -80.8810 185° South 436 502 21,800 2,160 Climbing FlightAware ADS-B
Fri 09:44:27 AM 34.6500 -80.8850 182° South 464 534 23,000 900 Climbing FlightAware ADS-B
Fri 09:45:12 AM 34.5560 -80.8760 175° South 457 526 23,300 1,482 Climbing FlightAware ADS-B
Fri 09:45:52 AM 34.4720 -80.8850 185° South 454 522 25,100 2,775 Climbing FlightAware ADS-B
Fri 09:46:32 AM 34.3880 -80.9040 191° South 458 527 27,000 2,560 Climbing FlightAware ADS-B
Fri 09:47:07 AM 34.3150 -80.9230 192° South 470 541 28,300 2,100 Climbing FlightAware ADS-B
Fri 09:47:52 AM 34.2160 -80.9490 192° South 484 557 29,800 1,133 Climbing FlightAware ADS-B
Fri 09:48:37 AM 34.1100 -80.9700 189° South 506 582 30,000 133 Climbing FlightAware ADS-B
Fri 09:49:22 AM 34.0080 -80.9750 182° South 492 566 30,000 424 Level FlightAware ADS-B
Fri 09:50:02 AM 33.9200 -80.9800 183° South 490 564 30,600 750 Climbing FlightAware ADS-B
Fri 09:50:42 AM 33.8220 -80.9880 184° South 502 578 31,000 1,482 Climbing FlightAware ADS-B
Fri 09:51:27 AM 33.7190 -80.9920 182° South 489 563 32,700 2,118 Climbing FlightAware ADS-B
Fri 09:52:07 AM 33.6270 -80.9960 182° South 494 568 34,000 918 Climbing FlightAware ADS-B
Fri 09:52:52 AM 33.5280 -81.0000 182° South 502 578 34,000  Level FlightAware ADS-B
Fri 09:53:32 AM 33.4310 -81.0040 182° South 494 568 34,000  Level FlightAware ADS-B
Fri 09:54:12 AM 33.3400 -81.0080 182° South 491 565 34,000  Level FlightAware ADS-B
Fri 09:54:57 AM 33.2410 -81.0120 182° South 488 562 34,000  Level FlightAware ADS-B
Fri 09:55:32 AM 33.1690 -81.0140 181° South 486 559 34,000  Level FlightAware ADS-B
Fri 09:56:22 AM 33.0480 -81.0190 182° South 484 557 34,000  Level FlightAware ADS-B
Fri 09:57:02 AM 32.9590 -81.0230 182° South 482 555 34,000  Level FlightAware ADS-B
Fri 09:57:42 AM 32.8700 -81.0280 183° South 481 554 34,000  Level FlightAware ADS-B
Fri 09:58:27 AM 32.7690 -81.0330 182° South 481 554 34,000  Level FlightAware ADS-B
Fri 09:59:07 AM 32.6820 -81.0380 183° South 482 555 34,000  Level FlightAware ADS-B
Fri 09:59:47 AM 32.5920 -81.0420 182° South 483 556 34,000  Level FlightAware ADS-B
Fri 10:00:27 AM 32.5080 -81.0460 182° South 483 556 34,000  Level FlightAware ADS-B
Fri 10:01:12 AM 32.4170 -81.0500 182° South 482 555 34,000  Level FlightAware ADS-B
Fri 10:02:07 AM 32.2900 -81.0560 182° South 482 555 34,000  Level FlightAware ADS-B
Fri 10:02:47 AM 32.2900 -81.0560 182° South 483 556 34,000  Level FlightAware ADS-B
Fri 10:03:27 AM 32.2140 -81.0590 182° South 483 556 34,000  Level FlightAware ADS-B
Fri 10:04:17 AM 32.1190 -81.0630 182° South 483 556 34,000  Level FlightAware ADS-B
Fri 10:04:57 AM 32.0430 -81.0670 183° South 483 556 34,000  Level FlightAware ADS-B
Fri 10:05:37 AM 31.9670 -81.0700 182° South 483 556 34,000  Level FlightAware ADS-B
Fri 10:06:17 AM 31.8910 -81.0730 182° South 483 556 34,000  Level FlightAware ADS-B
Fri 10:06:57 AM 31.8150 -81.0760 182° South 483 556 34,000  Level FlightAware ADS-B
Fri 10:07:47 AM 31.7200 -81.0800 182° South 483 556 34,000  Level FlightAware ADS-B
Fri 10:08:17 AM 31.6630 -81.0820 182° South 483 556 34,000  Level FlightAware ADS-B
Fri 10:08:57 AM 31.5870 -81.0850 182° South 483 556 34,000  Level FlightAware ADS-B
Fri 10:09:47 AM 31.4920 -81.0890 182° South 483 556 34,000  Level FlightAware ADS-B
Fri 10:10:27 AM 31.4160 -81.0920 182° South 483 556 34,000  Level FlightAware ADS-B
Fri 10:11:07 AM 31.3400 -81.0950 182° South 483 556 34,000  Level FlightAware ADS-B
Fri 10:11:47 AM 31.2650 -81.0980 182° South 483 556 34,000  Level FlightAware ADS-B
Fri 10:12:52 AM 30.8622 -81.1453 182° South 483 556 34,000  Level Jacksonville Center
Fri 10:13:52 AM 30.7264 -81.1525 183° South 483 556 34,000  Level Jacksonville Center
Fri 10:14:52 AM 30.5928 -81.1550 181° South 476 548 34,000 -750 Level Jacksonville Center
Fri 10:15:52 AM 30.4592 -81.1503 178° South 476 548 32,500 -1,400 Descending Jacksonville Center
Fri 10:16:52 AM 30.3172 -81.1456 178° South 488 562 31,200 -1,450 Descending Jacksonville Center
Fri 10:17:52 AM 30.1856 -81.1408 178° South 488 562 29,600 -1,600 Descending Jacksonville Center
Fri 10:18:52 AM 30.0542 -81.1383 179° South 476 548 28,000 -1,100 Descending Jacksonville Center
Fri 10:19:52 AM 29.9203 -81.1361 179° South 476 548 27,400 -1,150 Descending Jacksonville Center
Fri 10:20:52 AM 29.7867 -81.1311 178° South 476 548 25,700 -2,021 Descending Jacksonville Center
Fri 10:26:12 AM 29.1120 -81.0850 178° South 434 499 14,600 -2,233 Descending FlightAware ADS-B
Fri 10:26:52 AM 29.0440 -81.0800 176° South 373 429 12,300 -2,118 Descending FlightAware ADS-B
Fri 10:27:37 AM 28.9790 -81.0740 175° South 311 358 11,600 -1,200 Descending FlightAware ADS-B
Fri 10:28:22 AM 28.9080 -81.0620 172° South 309 356 10,500 -1,267 Descending FlightAware ADS-B
Fri 10:29:07 AM 28.8480 -81.0530 173° South 294 338 9,700 -1,000 Descending FlightAware ADS-B
Fri 10:29:22 AM 28.8310 -81.0500 171° South 291 335 9,500 -300 Descending FlightAware ADS-B
Fri 10:29:47 AM 28.8010 -81.0450 172° South 291 335 9,500 -1,200 Level FlightAware ADS-B
Fri 10:30:17 AM 28.7740 -81.0910 236° Southwest 274 315 8,400 -2,280 Descending FlightAware ADS-B
Fri 10:30:37 AM 28.7610 -81.1180 241° Southwest 270 311 7,600 -2,509 Descending FlightAware ADS-B
Fri 10:31:12 AM 28.7410 -81.1630 243° Southwest 272 313 6,100 -2,040 Descending FlightAware ADS-B
Fri 10:31:27 AM 28.7330 -81.1790 240° Southwest 260 299 5,900 -600 Descending FlightAware ADS-B
Fri 10:31:52 AM 28.7190 -81.2090 242° Southwest 227 261 5,700 -600 Descending FlightAware ADS-B
Fri 10:32:07 AM 28.7110 -81.2250 240° Southwest 221 254 5,500 -1,600 Descending FlightAware ADS-B
Fri 10:32:37 AM 28.6950 -81.2570 240° Southwest 227 261 4,500 -1,964 Descending FlightAware ADS-B
Fri 10:33:02 AM 28.6780 -81.2790 229° Southwest 223 257 3,700 -1,800 Descending FlightAware ADS-B
Fri 10:33:27 AM 28.6530 -81.2910 203° Southwest 227 261 3,000 -1,000 Descending FlightAware ADS-B
Fri 10:34:02 AM 28.6210 -81.3050 201° Southwest 211 243 2,700 -600 Descending FlightAware ADS-B
Fri 10:34:27 AM 28.5980 -81.3140 199° South 200 230 2,400 -120 Descending FlightAware ADS-B
Fri 10:34:52 AM 28.5850 -81.3275 199° South 215 247 2,600 146 Climbing Jacksonville Center
Fri 10:35:08 AM 28.5667 -81.3333 196° South 186 214 2,500 -375 Descending Orlando TRACON

Login

Don't have an account? Register now (free) for customized features, flight alerts, and more!